sensor_id;sensor_type;location;lat;lon;timestamp;pressure;altitude;pressure_sealevel;temperature;humidity
52957;BME280;38819;42.692;23.342;2023-04-27T00:01:11;94999.09;;;9.91;48.02
52957;BME280;38819;42.692;23.342;2023-04-27T00:03:37;94996.31;;;9.96;48.15
52957;BME280;38819;42.692;23.342;2023-04-27T00:06:02;94986.78;;;9.85;47.90
52957;BME280;38819;42.692;23.342;2023-04-27T00:08:28;94986.78;;;9.85;48.15
52957;BME280;38819;42.692;23.342;2023-04-27T00:10:53;94984.09;;;9.85;48.27
52957;BME280;38819;42.692;23.342;2023-04-27T00:13:18;94989.06;;;9.78;48.31
52957;BME280;38819;42.692;23.342;2023-04-27T00:15:44;94992.38;;;9.89;47.92
52957;BME280;38819;42.692;23.342;2023-04-27T00:18:10;94992.47;;;9.83;47.94
52957;BME280;38819;42.692;23.342;2023-04-27T00:20:35;94994.81;;;9.71;48.10
52957;BME280;38819;42.692;23.342;2023-04-27T00:23:01;95006.19;;;9.68;48.19
52957;BME280;38819;42.692;23.342;2023-04-27T00:25:26;95000.78;;;9.68;48.47
52957;BME280;38819;42.692;23.342;2023-04-27T00:27:51;94998.81;;;9.74;48.61
52957;BME280;38819;42.692;23.342;2023-04-27T00:30:17;95000.72;;;9.73;48.62
52957;BME280;38819;42.692;23.342;2023-04-27T00:32:42;94995.75;;;9.61;48.72
52957;BME280;38819;42.692;23.342;2023-04-27T00:35:08;94994.09;;;9.66;48.48
52957;BME280;38819;42.692;23.342;2023-04-27T00:37:34;94998.59;;;9.70;48.53
52957;BME280;38819;42.692;23.342;2023-04-27T00:39:59;95001.59;;;9.69;48.09
52957;BME280;38819;42.692;23.342;2023-04-27T00:42:25;94995.19;;;9.64;48.32
52957;BME280;38819;42.692;23.342;2023-04-27T00:44:50;94994.47;;;9.59;48.40
52957;BME280;38819;42.692;23.342;2023-04-27T00:47:16;95002.47;;;9.64;48.32
52957;BME280;38819;42.692;23.342;2023-04-27T00:49:42;94995.47;;;9.63;48.10
52957;BME280;38819;42.692;23.342;2023-04-27T00:52:08;95006.34;;;9.58;48.37
52957;BME280;38819;42.692;23.342;2023-04-27T00:54:34;95002.09;;;9.52;48.72
52957;BME280;38819;42.692;23.342;2023-04-27T00:57:00;95007.78;;;9.50;48.50
52957;BME280;38819;42.692;23.342;2023-04-27T00:59:26;95007.47;;;9.52;48.76
52957;BME280;38819;42.692;23.342;2023-04-27T01:01:53;95002.75;;;9.43;48.45
52957;BME280;38819;42.692;23.342;2023-04-27T01:04:19;95015.78;;;9.36;48.67
52957;BME280;38819;42.692;23.342;2023-04-27T01:06:46;95031.59;;;9.43;48.54
52957;BME280;38819;42.692;23.342;2023-04-27T01:09:11;95016.22;;;9.43;48.81
52957;BME280;38819;42.692;23.342;2023-04-27T01:11:36;95019.75;;;9.44;48.61
52957;BME280;38819;42.692;23.342;2023-04-27T01:14:03;95029.41;;;9.45;48.98
52957;BME280;38819;42.692;23.342;2023-04-27T01:16:30;95021.75;;;9.33;48.94
52957;BME280;38819;42.692;23.342;2023-04-27T01:18:56;95030.13;;;9.32;49.02
52957;BME280;38819;42.692;23.342;2023-04-27T01:21:21;95023.88;;;9.36;49.14
52957;BME280;38819;42.692;23.342;2023-04-27T01:23:47;95023.94;;;9.50;48.45
52957;BME280;38819;42.692;23.342;2023-04-27T01:26:12;95022.44;;;9.44;48.71
52957;BME280;38819;42.692;23.342;2023-04-27T01:28:43;95023.66;;;9.52;48.70
52957;BME280;38819;42.692;23.342;2023-04-27T01:31:09;95026.34;;;9.52;48.48
52957;BME280;38819;42.692;23.342;2023-04-27T01:33:35;95023.16;;;9.50;48.35
52957;BME280;38819;42.692;23.342;2023-04-27T01:36:01;95029.63;;;9.49;48.66
52957;BME280;38819;42.692;23.342;2023-04-27T01:38:26;95029.28;;;9.55;48.29
52957;BME280;38819;42.692;23.342;2023-04-27T01:40:52;95036.50;;;9.60;48.49
52957;BME280;38819;42.692;23.342;2023-04-27T01:43:19;95035.47;;;9.56;48.19
52957;BME280;38819;42.692;23.342;2023-04-27T01:45:45;95040.31;;;9.59;48.22
52957;BME280;38819;42.692;23.342;2023-04-27T01:48:12;95028.69;;;9.58;48.41
52957;BME280;38819;42.692;23.342;2023-04-27T01:50:38;95036.84;;;9.53;48.68
52957;BME280;38819;42.692;23.342;2023-04-27T01:53:03;95039.75;;;9.57;48.57
52957;BME280;38819;42.692;23.342;2023-04-27T01:55:28;95032.78;;;9.56;48.54
52957;BME280;38819;42.692;23.342;2023-04-27T01:57:54;95038.91;;;9.61;48.39
52957;BME280;38819;42.692;23.342;2023-04-27T02:00:19;95041.88;;;9.60;48.38
52957;BME280;38819;42.692;23.342;2023-04-27T02:02:45;95047.84;;;9.57;48.22
52957;BME280;38819;42.692;23.342;2023-04-27T02:05:11;95036.63;;;9.50;48.53
52957;BME280;38819;42.692;23.342;2023-04-27T02:07:36;95045.38;;;9.41;48.80
52957;BME280;38819;42.692;23.342;2023-04-27T02:10:01;95040.03;;;9.36;48.63
52957;BME280;38819;42.692;23.342;2023-04-27T02:12:27;95046.97;;;9.42;48.33
52957;BME280;38819;42.692;23.342;2023-04-27T02:14:52;95040.84;;;9.37;48.06
52957;BME280;38819;42.692;23.342;2023-04-27T02:17:17;95046.22;;;9.37;48.47
52957;BME280;38819;42.692;23.342;2023-04-27T02:19:43;95039.88;;;9.27;48.43
52957;BME280;38819;42.692;23.342;2023-04-27T02:22:08;95046.06;;;9.28;48.41
52957;BME280;38819;42.692;23.342;2023-04-27T02:24:34;95045.50;;;9.31;48.40
52957;BME280;38819;42.692;23.342;2023-04-27T02:27:00;95049.84;;;9.27;48.51
52957;BME280;38819;42.692;23.342;2023-04-27T02:29:29;95047.16;;;9.27;48.58
52957;BME280;38819;42.692;23.342;2023-04-27T02:31:55;95049.91;;;9.22;48.70
52957;BME280;38819;42.692;23.342;2023-04-27T02:34:20;95050.72;;;9.22;48.28
52957;BME280;38819;42.692;23.342;2023-04-27T02:36:45;95054.50;;;9.21;48.51
52957;BME280;38819;42.692;23.342;2023-04-27T02:39:11;95058.81;;;9.22;48.17
52957;BME280;38819;42.692;23.342;2023-04-27T02:41:36;95052.16;;;9.15;48.22
52957;BME280;38819;42.692;23.342;2023-04-27T02:44:02;95054.41;;;9.07;48.31
52957;BME280;38819;42.692;23.342;2023-04-27T02:46:27;95054.63;;;9.11;48.14
52957;BME280;38819;42.692;23.342;2023-04-27T02:48:54;95055.13;;;9.13;48.10
52957;BME280;38819;42.692;23.342;2023-04-27T02:51:19;95057.94;;;9.03;48.23
52957;BME280;38819;42.692;23.342;2023-04-27T02:53:45;95052.50;;;9.08;48.24
52957;BME280;38819;42.692;23.342;2023-04-27T02:56:10;95063.16;;;8.94;48.32
52957;BME280;38819;42.692;23.342;2023-04-27T02:58:35;95056.16;;;8.93;48.66
52957;BME280;38819;42.692;23.342;2023-04-27T03:01:01;95049.47;;;8.90;48.19
52957;BME280;38819;42.692;23.342;2023-04-27T03:03:27;95054.66;;;8.82;48.67
52957;BME280;38819;42.692;23.342;2023-04-27T03:05:52;95061.38;;;8.84;48.98
52957;BME280;38819;42.692;23.342;2023-04-27T03:08:17;95061.41;;;8.79;48.90
52957;BME280;38819;42.692;23.342;2023-04-27T03:10:43;95061.69;;;8.78;48.62
52957;BME280;38819;42.692;23.342;2023-04-27T03:13:08;95068.66;;;8.84;48.62
52957;BME280;38819;42.692;23.342;2023-04-27T03:15:34;95073.22;;;8.83;48.59
52957;BME280;38819;42.692;23.342;2023-04-27T03:17:59;95080.97;;;8.90;48.69
52957;BME280;38819;42.692;23.342;2023-04-27T03:20:25;95075.91;;;8.83;48.80
52957;BME280;38819;42.692;23.342;2023-04-27T03:22:50;95072.38;;;8.88;48.59
52957;BME280;38819;42.692;23.342;2023-04-27T03:25:15;95076.44;;;8.85;48.75
52957;BME280;38819;42.692;23.342;2023-04-27T03:27:41;95077.06;;;8.77;49.03
52957;BME280;38819;42.692;23.342;2023-04-27T03:30:08;95086.16;;;8.81;48.85
52957;BME280;38819;42.692;23.342;2023-04-27T03:32:33;95082.41;;;8.82;48.85
52957;BME280;38819;42.692;23.342;2023-04-27T03:34:59;95084.47;;;8.61;48.69
52957;BME280;38819;42.692;23.342;2023-04-27T03:37:25;95091.97;;;8.64;49.04
52957;BME280;38819;42.692;23.342;2023-04-27T03:39:51;95086.19;;;8.52;49.06
52957;BME280;38819;42.692;23.342;2023-04-27T03:42:16;95097.13;;;8.61;49.27
52957;BME280;38819;42.692;23.342;2023-04-27T03:44:42;95092.88;;;8.55;49.41
52957;BME280;38819;42.692;23.342;2023-04-27T03:47:07;95098.59;;;8.48;49.45
52957;BME280;38819;42.692;23.342;2023-04-27T03:49:37;95099.63;;;8.52;49.73
52957;BME280;38819;42.692;23.342;2023-04-27T03:52:02;95097.19;;;8.56;49.49
52957;BME280;38819;42.692;23.342;2023-04-27T03:54:30;95099.28;;;8.64;49.48
52957;BME280;38819;42.692;23.342;2023-04-27T03:56:55;95099.81;;;8.61;49.33
52957;BME280;38819;42.692;23.342;2023-04-27T03:59:21;95111.16;;;8.58;49.14
52957;BME280;38819;42.692;23.342;2023-04-27T04:01:46;95114.88;;;8.62;49.35
52957;BME280;38819;42.692;23.342;2023-04-27T04:04:12;95122.97;;;8.62;48.93
52957;BME280;38819;42.692;23.342;2023-04-27T04:06:37;95121.91;;;8.58;49.20
52957;BME280;38819;42.692;23.342;2023-04-27T04:09:03;95117.34;;;8.58;49.43
52957;BME280;38819;42.692;23.342;2023-04-27T04:11:28;95129.75;;;8.54;49.59
52957;BME280;38819;42.692;23.342;2023-04-27T04:13:54;95128.34;;;8.62;49.24
52957;BME280;38819;42.692;23.342;2023-04-27T04:16:19;95127.00;;;8.64;49.28
52957;BME280;38819;42.692;23.342;2023-04-27T04:18:45;95131.84;;;8.62;49.09
52957;BME280;38819;42.692;23.342;2023-04-27T04:21:10;95137.19;;;8.67;48.78
52957;BME280;38819;42.692;23.342;2023-04-27T04:23:36;95135.97;;;8.49;49.21
52957;BME280;38819;42.692;23.342;2023-04-27T04:26:02;95138.16;;;8.42;49.17
52957;BME280;38819;42.692;23.342;2023-04-27T04:28:28;95141.13;;;8.46;49.56
52957;BME280;38819;42.692;23.342;2023-04-27T04:30:53;95153.47;;;8.47;49.26
52957;BME280;38819;42.692;23.342;2023-04-27T04:33:18;95146.56;;;8.35;49.66
52957;BME280;38819;42.692;23.342;2023-04-27T04:35:44;95151.09;;;8.45;49.79
52957;BME280;38819;42.692;23.342;2023-04-27T04:38:11;95155.34;;;8.51;49.22
52957;BME280;38819;42.692;23.342;2023-04-27T04:40:37;95155.91;;;8.48;49.27
52957;BME280;38819;42.692;23.342;2023-04-27T04:43:03;95150.47;;;8.53;49.14
52957;BME280;38819;42.692;23.342;2023-04-27T04:45:29;95150.78;;;8.52;49.67
52957;BME280;38819;42.692;23.342;2023-04-27T04:47:55;95162.25;;;8.63;49.10
52957;BME280;38819;42.692;23.342;2023-04-27T04:50:20;95168.94;;;8.70;49.16
52957;BME280;38819;42.692;23.342;2023-04-27T04:52:46;95171.09;;;8.68;48.88
52957;BME280;38819;42.692;23.342;2023-04-27T04:55:11;95172.16;;;8.73;49.08
52957;BME280;38819;42.692;23.342;2023-04-27T04:57:37;95172.16;;;8.73;48.83
52957;BME280;38819;42.692;23.342;2023-04-27T05:00:03;95171.31;;;8.77;48.64
52957;BME280;38819;42.692;23.342;2023-04-27T05:02:30;95179.31;;;8.87;48.14
52957;BME280;38819;42.692;23.342;2023-04-27T05:04:56;95186.28;;;8.88;48.11
52957;BME280;38819;42.692;23.342;2023-04-27T05:07:21;95185.91;;;8.71;48.72
52957;BME280;38819;42.692;23.342;2023-04-27T05:09:47;95185.38;;;8.69;48.48
52957;BME280;38819;42.692;23.342;2023-04-27T05:12:12;95190.91;;;8.83;48.73
52957;BME280;38819;42.692;23.342;2023-04-27T05:14:37;95186.31;;;8.83;48.52
52957;BME280;38819;42.692;23.342;2023-04-27T05:17:03;95185.22;;;8.89;48.65
52957;BME280;38819;42.692;23.342;2023-04-27T05:19:29;95190.63;;;8.84;48.56
52957;BME280;38819;42.692;23.342;2023-04-27T05:21:55;95194.13;;;8.85;48.70
52957;BME280;38819;42.692;23.342;2023-04-27T05:24:21;95195.19;;;8.89;48.10
52957;BME280;38819;42.692;23.342;2023-04-27T05:26:46;95197.00;;;8.94;48.06
52957;BME280;38819;42.692;23.342;2023-04-27T05:29:11;95194.88;;;8.96;48.57
52957;BME280;38819;42.692;23.342;2023-04-27T05:31:37;95202.13;;;8.95;48.73
52957;BME280;38819;42.692;23.342;2023-04-27T05:34:02;95196.66;;;9.05;48.38
52957;BME280;38819;42.692;23.342;2023-04-27T05:36:28;95193.06;;;9.15;48.04
52957;BME280;38819;42.692;23.342;2023-04-27T05:38:54;95198.22;;;9.12;48.33
52957;BME280;38819;42.692;23.342;2023-04-27T05:41:19;95203.22;;;9.23;47.87
52957;BME280;38819;42.692;23.342;2023-04-27T05:43:45;95204.84;;;9.24;47.72
52957;BME280;38819;42.692;23.342;2023-04-27T05:46:14;95205.63;;;9.25;48.01
52957;BME280;38819;42.692;23.342;2023-04-27T05:48:39;95205.69;;;9.20;48.04
52957;BME280;38819;42.692;23.342;2023-04-27T05:51:05;95205.06;;;9.28;47.74
52957;BME280;38819;42.692;23.342;2023-04-27T05:53:33;95200.47;;;9.28;47.99
52957;BME280;38819;42.692;23.342;2023-04-27T05:55:58;95200.97;;;9.36;48.21
52957;BME280;38819;42.692;23.342;2023-04-27T05:58:25;95208.19;;;9.40;48.22
52957;BME280;38819;42.692;23.342;2023-04-27T06:00:52;95210.50;;;9.52;48.01
52957;BME280;38819;42.692;23.342;2023-04-27T06:03:17;95208.16;;;9.45;47.38
52957;BME280;38819;42.692;23.342;2023-04-27T06:05:43;95206.53;;;9.44;47.80
52957;BME280;38819;42.692;23.342;2023-04-27T06:08:09;95207.28;;;9.50;48.09
52957;BME280;38819;42.692;23.342;2023-04-27T06:10:35;95203.16;;;9.58;47.68
52957;BME280;38819;42.692;23.342;2023-04-27T06:13:01;95205.56;;;9.59;47.51
52957;BME280;38819;42.692;23.342;2023-04-27T06:15:26;95206.03;;;9.67;47.64
52957;BME280;38819;42.692;23.342;2023-04-27T06:17:52;95207.47;;;9.59;47.47
52957;BME280;38819;42.692;23.342;2023-04-27T06:20:17;95212.03;;;9.58;47.87
52957;BME280;38819;42.692;23.342;2023-04-27T06:22:43;95197.78;;;9.58;47.58
52957;BME280;38819;42.692;23.342;2023-04-27T06:25:08;95204.38;;;9.71;47.32
52957;BME280;38819;42.692;23.342;2023-04-27T06:27:34;95201.19;;;9.63;47.16
52957;BME280;38819;42.692;23.342;2023-04-27T06:29:59;95204.13;;;9.67;47.72
52957;BME280;38819;42.692;23.342;2023-04-27T06:32:25;95206.53;;;9.69;47.35
52957;BME280;38819;42.692;23.342;2023-04-27T06:34:50;95197.25;;;9.80;47.58
52957;BME280;38819;42.692;23.342;2023-04-27T06:37:16;95194.66;;;9.94;47.33
52957;BME280;38819;42.692;23.342;2023-04-27T06:39:45;95203.00;;;9.97;46.85
52957;BME280;38819;42.692;23.342;2023-04-27T06:42:10;95196.84;;;9.92;46.88
52957;BME280;38819;42.692;23.342;2023-04-27T06:44:37;95191.22;;;9.88;47.03
52957;BME280;38819;42.692;23.342;2023-04-27T06:47:02;95188.09;;;10.00;46.67
52957;BME280;38819;42.692;23.342;2023-04-27T06:49:28;95191.03;;;10.04;46.88
52957;BME280;38819;42.692;23.342;2023-04-27T06:51:53;95186.88;;;9.92;46.60
52957;BME280;38819;42.692;23.342;2023-04-27T06:54:18;95194.34;;;9.95;46.62
52957;BME280;38819;42.692;23.342;2023-04-27T06:56:44;95186.19;;;10.00;46.55
52957;BME280;38819;42.692;23.342;2023-04-27T06:59:09;95186.31;;;10.14;46.29
52957;BME280;38819;42.692;23.342;2023-04-27T07:01:35;95190.41;;;10.31;46.15
52957;BME280;38819;42.692;23.342;2023-04-27T07:04:04;95178.38;;;10.23;45.92
52957;BME280;38819;42.692;23.342;2023-04-27T07:06:30;95185.50;;;10.14;45.68
52957;BME280;38819;42.692;23.342;2023-04-27T07:08:57;95211.09;;;10.16;45.60
52957;BME280;38819;42.692;23.342;2023-04-27T07:11:22;95180.28;;;9.98;45.53
52957;BME280;38819;42.692;23.342;2023-04-27T07:13:48;95190.16;;;10.08;45.38
52957;BME280;38819;42.692;23.342;2023-04-27T07:16:14;95186.72;;;10.02;45.62
52957;BME280;38819;42.692;23.342;2023-04-27T07:18:40;95186.38;;;10.09;45.54
52957;BME280;38819;42.692;23.342;2023-04-27T07:21:06;95181.34;;;10.02;45.24
52957;BME280;38819;42.692;23.342;2023-04-27T07:23:31;95184.31;;;10.01;45.54
52957;BME280;38819;42.692;23.342;2023-04-27T07:25:57;95183.34;;;9.92;45.78
52957;BME280;38819;42.692;23.342;2023-04-27T07:28:23;95185.41;;;10.00;45.57
52957;BME280;38819;42.692;23.342;2023-04-27T07:30:48;95196.41;;;10.04;45.09
52957;BME280;38819;42.692;23.342;2023-04-27T07:33:14;95182.50;;;9.96;45.53
52957;BME280;38819;42.692;23.342;2023-04-27T07:35:40;95178.34;;;10.04;45.26
52957;BME280;38819;42.692;23.342;2023-04-27T07:38:06;95193.44;;;10.05;45.90
52957;BME280;38819;42.692;23.342;2023-04-27T07:40:32;95176.25;;;10.20;45.18
52957;BME280;38819;42.692;23.342;2023-04-27T07:42:58;95188.81;;;10.30;44.88
52957;BME280;38819;42.692;23.342;2023-04-27T07:45:24;95181.84;;;10.24;44.57
52957;BME280;38819;42.692;23.342;2023-04-27T07:47:56;95178.88;;;10.25;45.40
52957;BME280;38819;42.692;23.342;2023-04-27T07:50:22;95176.09;;;10.30;45.01
52957;BME280;38819;42.692;23.342;2023-04-27T07:52:50;95183.13;;;10.31;44.24
52957;BME280;38819;42.692;23.342;2023-04-27T07:55:15;95184.25;;;10.25;44.62
52957;BME280;38819;42.692;23.342;2023-04-27T07:57:41;95173.06;;;10.37;43.73
52957;BME280;38819;42.692;23.342;2023-04-27T08:00:07;95176.22;;;10.44;43.69
52957;BME280;38819;42.692;23.342;2023-04-27T08:02:34;95183.50;;;10.44;44.20
52957;BME280;38819;42.692;23.342;2023-04-27T08:05:00;95193.94;;;10.50;43.42
52957;BME280;38819;42.692;23.342;2023-04-27T08:07:26;95190.88;;;10.57;43.55
52957;BME280;38819;42.692;23.342;2023-04-27T08:09:52;95177.38;;;10.38;43.82
52957;BME280;38819;42.692;23.342;2023-04-27T08:12:17;95185.19;;;10.59;43.57
52957;BME280;38819;42.692;23.342;2023-04-27T08:14:43;95187.63;;;10.74;43.33
52957;BME280;38819;42.692;23.342;2023-04-27T08:17:09;95184.34;;;10.77;42.60
52957;BME280;38819;42.692;23.342;2023-04-27T08:19:35;95177.00;;;10.83;42.77
52957;BME280;38819;42.692;23.342;2023-04-27T08:22:01;95174.69;;;10.90;43.14
52957;BME280;38819;42.692;23.342;2023-04-27T08:24:26;95181.56;;;11.01;42.44
52957;BME280;38819;42.692;23.342;2023-04-27T08:26:51;95178.03;;;11.01;42.11
52957;BME280;38819;42.692;23.342;2023-04-27T08:29:17;95164.84;;;11.13;42.34
52957;BME280;38819;42.692;23.342;2023-04-27T08:31:42;95166.06;;;11.21;42.71
52957;BME280;38819;42.692;23.342;2023-04-27T08:34:08;95164.19;;;11.35;42.09
52957;BME280;38819;42.692;23.342;2023-04-27T08:36:33;95158.28;;;11.47;42.16
52957;BME280;38819;42.692;23.342;2023-04-27T08:38:59;95166.13;;;11.48;41.55
52957;BME280;38819;42.692;23.342;2023-04-27T08:41:24;95171.91;;;11.56;41.35
52957;BME280;38819;42.692;23.342;2023-04-27T08:43:51;95177.66;;;11.68;41.28
52957;BME280;38819;42.692;23.342;2023-04-27T08:46:22;95171.91;;;11.56;42.19
52957;BME280;38819;42.692;23.342;2023-04-27T08:48:54;95175.84;;;11.49;42.00
52957;BME280;38819;42.692;23.342;2023-04-27T08:51:21;95170.94;;;11.52;41.50
52957;BME280;38819;42.692;23.342;2023-04-27T08:53:54;95175.94;;;11.58;41.83
52957;BME280;38819;42.692;23.342;2023-04-27T08:56:22;95158.91;;;11.72;42.09
52957;BME280;38819;42.692;23.342;2023-04-27T08:58:52;95172.16;;;11.73;41.84
52957;BME280;38819;42.692;23.342;2023-04-27T09:01:18;95181.34;;;11.72;41.04
52957;BME280;38819;42.692;23.342;2023-04-27T09:03:45;95182.97;;;11.73;41.72
52957;BME280;38819;42.692;23.342;2023-04-27T09:06:11;95167.44;;;11.79;41.55
52957;BME280;38819;42.692;23.342;2023-04-27T09:08:44;95171.53;;;11.90;41.40
52957;BME280;38819;42.692;23.342;2023-04-27T09:11:11;95152.41;;;11.86;41.19
52957;BME280;38819;42.692;23.342;2023-04-27T09:13:38;95164.44;;;11.94;41.56
52957;BME280;38819;42.692;23.342;2023-04-27T09:16:04;95179.25;;;11.83;41.51
52957;BME280;38819;42.692;23.342;2023-04-27T09:18:33;95162.91;;;11.88;41.81
52957;BME280;38819;42.692;23.342;2023-04-27T09:20:59;95147.59;;;12.11;41.16
52957;BME280;38819;42.692;23.342;2023-04-27T09:23:33;95155.38;;;12.13;40.80
52957;BME280;38819;42.692;23.342;2023-04-27T09:26:01;95153.41;;;12.04;40.79
52957;BME280;38819;42.692;23.342;2023-04-27T09:28:29;95161.72;;;12.08;40.78
52957;BME280;38819;42.692;23.342;2023-04-27T09:31:00;95149.41;;;12.02;40.67
52957;BME280;38819;42.692;23.342;2023-04-27T09:33:33;95156.59;;;12.20;40.63
52957;BME280;38819;42.692;23.342;2023-04-27T09:36:03;95160.19;;;12.30;39.96
52957;BME280;38819;42.692;23.342;2023-04-27T09:38:30;95152.66;;;12.27;39.91
52957;BME280;38819;42.692;23.342;2023-04-27T09:40:56;95144.25;;;12.28;40.19
52957;BME280;38819;42.692;23.342;2023-04-27T09:43:22;95145.28;;;12.41;39.91
52957;BME280;38819;42.692;23.342;2023-04-27T09:45:49;95150.94;;;12.31;39.18
52957;BME280;38819;42.692;23.342;2023-04-27T09:48:16;95139.50;;;12.34;39.56
52957;BME280;38819;42.692;23.342;2023-04-27T09:50:43;95126.44;;;12.36;39.79
52957;BME280;38819;42.692;23.342;2023-04-27T09:53:31;95127.34;;;12.45;39.43
52957;BME280;38819;42.692;23.342;2023-04-27T10:01:22;95131.19;;;12.53;39.28
52957;BME280;38819;42.692;23.342;2023-04-27T10:09:25;95137.25;;;12.50;38.86
52957;BME280;38819;42.692;23.342;2023-04-27T10:11:52;95115.06;;;12.25;39.75
52957;BME280;38819;42.692;23.342;2023-04-27T10:14:21;95134.38;;;12.32;39.42
52957;BME280;38819;42.692;23.342;2023-04-27T10:16:57;95121.16;;;12.31;39.41
52957;BME280;38819;42.692;23.342;2023-04-27T10:19:24;95111.09;;;12.45;39.47
52957;BME280;38819;42.692;23.342;2023-04-27T10:21:57;95125.91;;;12.48;38.80
52957;BME280;38819;42.692;23.342;2023-04-27T10:27:06;95133.72;;;12.49;38.84
52957;BME280;38819;42.692;23.342;2023-04-27T10:32:18;95125.88;;;12.62;38.13
52957;BME280;38819;42.692;23.342;2023-04-27T10:34:45;95121.78;;;12.73;38.40
52957;BME280;38819;42.692;23.342;2023-04-27T10:37:13;95113.88;;;12.76;37.91
52957;BME280;38819;42.692;23.342;2023-04-27T10:39:40;95114.09;;;12.89;36.71
52957;BME280;38819;42.692;23.342;2023-04-27T10:42:06;95124.84;;;13.03;36.51
52957;BME280;38819;42.692;23.342;2023-04-27T10:44:33;95125.44;;;12.68;37.23
52957;BME280;38819;42.692;23.342;2023-04-27T10:47:01;95117.38;;;12.77;37.31
52957;BME280;38819;42.692;23.342;2023-04-27T10:49:27;95122.97;;;12.81;37.07
52957;BME280;38819;42.692;23.342;2023-04-27T10:51:56;95112.63;;;12.83;36.87
52957;BME280;38819;42.692;23.342;2023-04-27T10:54:28;95123.84;;;12.90;36.80
52957;BME280;38819;42.692;23.342;2023-04-27T10:57:07;95105.53;;;12.95;36.48
52957;BME280;38819;42.692;23.342;2023-04-27T10:59:34;95104.94;;;13.07;36.30
52957;BME280;38819;42.692;23.342;2023-04-27T11:02:00;95119.59;;;13.06;36.68
52957;BME280;38819;42.692;23.342;2023-04-27T11:04:39;95129.78;;;13.01;36.37
52957;BME280;38819;42.692;23.342;2023-04-27T11:07:08;95124.06;;;13.02;35.65
52957;BME280;38819;42.692;23.342;2023-04-27T11:09:38;95097.56;;;12.99;35.77
52957;BME280;38819;42.692;23.342;2023-04-27T11:12:11;95099.63;;;12.93;35.92
52957;BME280;38819;42.692;23.342;2023-04-27T11:14:37;95101.94;;;12.86;36.51
52957;BME280;38819;42.692;23.342;2023-04-27T11:17:03;95112.47;;;12.88;37.02
52957;BME280;38819;42.692;23.342;2023-04-27T11:19:28;95120.88;;;13.00;36.83
52957;BME280;38819;42.692;23.342;2023-04-27T11:22:05;95118.47;;;12.98;36.88
52957;BME280;38819;42.692;23.342;2023-04-27T11:24:34;95121.47;;;12.97;36.88
52957;BME280;38819;42.692;23.342;2023-04-27T11:27:00;95129.06;;;12.86;36.82
52957;BME280;38819;42.692;23.342;2023-04-27T11:29:25;95119.78;;;12.78;36.82
52957;BME280;38819;42.692;23.342;2023-04-27T11:32:01;95120.91;;;12.86;36.99
52957;BME280;38819;42.692;23.342;2023-04-27T11:34:28;95118.22;;;12.86;37.02
52957;BME280;38819;42.692;23.342;2023-04-27T11:37:00;95122.88;;;12.94;36.91
52957;BME280;38819;42.692;23.342;2023-04-27T11:39:27;95126.41;;;12.95;36.81
52957;BME280;38819;42.692;23.342;2023-04-27T11:41:53;95129.44;;;12.93;36.70
52957;BME280;38819;42.692;23.342;2023-04-27T11:44:24;95141.44;;;13.01;36.67
52957;BME280;38819;42.692;23.342;2023-04-27T11:46:50;95121.78;;;12.95;36.91
52957;BME280;38819;42.692;23.342;2023-04-27T11:49:17;95124.31;;;12.92;37.15
52957;BME280;38819;42.692;23.342;2023-04-27T11:51:44;95117.41;;;13.08;36.66
52957;BME280;38819;42.692;23.342;2023-04-27T11:54:10;95121.41;;;13.11;36.72
52957;BME280;38819;42.692;23.342;2023-04-27T11:56:39;95136.13;;;13.19;36.38
52957;BME280;38819;42.692;23.342;2023-04-27T11:59:05;95139.94;;;13.18;36.10
52957;BME280;38819;42.692;23.342;2023-04-27T12:01:33;95129.53;;;13.11;36.77
52957;BME280;38819;42.692;23.342;2023-04-27T12:04:00;95135.44;;;13.13;36.64
52957;BME280;38819;42.692;23.342;2023-04-27T12:06:27;95132.63;;;13.18;36.17
52957;BME280;38819;42.692;23.342;2023-04-27T12:08:56;95129.78;;;13.23;36.37
52957;BME280;38819;42.692;23.342;2023-04-27T12:11:23;95142.47;;;13.14;36.29
52957;BME280;38819;42.692;23.342;2023-04-27T12:13:50;95136.75;;;13.15;36.33
52957;BME280;38819;42.692;23.342;2023-04-27T12:16:16;95128.16;;;13.22;36.46
52957;BME280;38819;42.692;23.342;2023-04-27T12:18:42;95135.19;;;13.23;36.17
52957;BME280;38819;42.692;23.342;2023-04-27T12:21:07;95139.00;;;13.22;36.23
52957;BME280;38819;42.692;23.342;2023-04-27T12:23:34;95141.69;;;13.13;35.96
52957;BME280;38819;42.692;23.342;2023-04-27T12:26:00;95141.25;;;13.20;35.89
52957;BME280;38819;42.692;23.342;2023-04-27T12:28:26;95133.81;;;13.34;36.14
52957;BME280;38819;42.692;23.342;2023-04-27T12:30:51;95128.31;;;13.48;35.23
52957;BME280;38819;42.692;23.342;2023-04-27T12:33:17;95150.69;;;13.54;35.23
52957;BME280;38819;42.692;23.342;2023-04-27T12:35:42;95127.56;;;13.57;35.45
52957;BME280;38819;42.692;23.342;2023-04-27T12:38:07;95123.41;;;13.59;35.39
52957;BME280;38819;42.692;23.342;2023-04-27T12:40:33;95141.44;;;13.55;35.74
52957;BME280;38819;42.692;23.342;2023-04-27T12:42:59;95130.00;;;13.36;36.54
52957;BME280;38819;42.692;23.342;2023-04-27T12:45:25;95135.13;;;13.37;36.11
52957;BME280;38819;42.692;23.342;2023-04-27T12:47:51;95137.41;;;13.21;36.41
52957;BME280;38819;42.692;23.342;2023-04-27T12:50:17;95143.09;;;13.33;36.03
52957;BME280;38819;42.692;23.342;2023-04-27T12:52:42;95158.63;;;13.42;36.13
52957;BME280;38819;42.692;23.342;2023-04-27T12:55:08;95141.97;;;13.34;35.81
52957;BME280;38819;42.692;23.342;2023-04-27T12:57:34;95146.78;;;13.38;36.10
52957;BME280;38819;42.692;23.342;2023-04-27T12:59:59;95143.31;;;13.46;35.93
52957;BME280;38819;42.692;23.342;2023-04-27T13:02:25;95145.84;;;13.42;35.75
52957;BME280;38819;42.692;23.342;2023-04-27T13:04:51;95146.00;;;13.46;35.91
52957;BME280;38819;42.692;23.342;2023-04-27T13:07:17;95137.41;;;13.44;36.00